sensor_id;sensor_type;location;lat;lon;timestamp;P1;durP1;ratioP1;P2;durP2;ratioP2
52650;SDS011;38537;47.226;39.702;2022-08-04T00:01:21;12.68;;;9.43;;
52650;SDS011;38537;47.226;39.702;2022-08-04T00:04:03;13.90;;;9.07;;
52650;SDS011;38537;47.226;39.702;2022-08-04T00:09:46;18.73;;;9.95;;
52650;SDS011;38537;47.226;39.702;2022-08-04T00:12:19;17.83;;;9.80;;
52650;SDS011;38537;47.226;39.702;2022-08-04T00:14:57;12.80;;;8.50;;
52650;SDS011;38537;47.226;39.702;2022-08-04T00:17:31;15.55;;;9.68;;
52650;SDS011;38537;47.226;39.702;2022-08-04T00:20:05;19.35;;;10.05;;
52650;SDS011;38537;47.226;39.702;2022-08-04T00:22:35;17.95;;;9.90;;
52650;SDS011;38537;47.226;39.702;2022-08-04T00:25:05;16.80;;;10.48;;
52650;SDS011;38537;47.226;39.702;2022-08-04T00:27:33;15.07;;;10.20;;
52650;SDS011;38537;47.226;39.702;2022-08-04T00:30:02;16.83;;;9.80;;
52650;SDS011;38537;47.226;39.702;2022-08-04T00:32:30;18.60;;;10.63;;
52650;SDS011;38537;47.226;39.702;2022-08-04T00:35:00;17.65;;;10.80;;
52650;SDS011;38537;47.226;39.702;2022-08-04T00:37:28;17.13;;;11.10;;
52650;SDS011;38537;47.226;39.702;2022-08-04T00:39:58;15.25;;;9.88;;
52650;SDS011;38537;47.226;39.702;2022-08-04T00:50:44;15.15;;;10.98;;
52650;SDS011;38537;47.226;39.702;2022-08-04T00:53:37;16.42;;;10.30;;
52650;SDS011;38537;47.226;39.702;2022-08-04T00:59:16;16.70;;;9.90;;
52650;SDS011;38537;47.226;39.702;2022-08-04T01:10:03;18.42;;;11.93;;
52650;SDS011;38537;47.226;39.702;2022-08-04T01:18:03;17.65;;;11.60;;
52650;SDS011;38537;47.226;39.702;2022-08-04T01:20:32;15.43;;;10.90;;
52650;SDS011;38537;47.226;39.702;2022-08-04T01:23:17;16.00;;;11.18;;
52650;SDS011;38537;47.226;39.702;2022-08-04T01:29:13;18.27;;;11.30;;
52650;SDS011;38537;47.226;39.702;2022-08-04T01:34:12;11.63;;;9.43;;
52650;SDS011;38537;47.226;39.702;2022-08-04T01:36:44;12.88;;;10.13;;
52650;SDS011;38537;47.226;39.702;2022-08-04T01:39:15;14.23;;;10.65;;
52650;SDS011;38537;47.226;39.702;2022-08-04T01:42:04;17.20;;;10.95;;
52650;SDS011;38537;47.226;39.702;2022-08-04T01:44:36;15.88;;;9.98;;
52650;SDS011;38537;47.226;39.702;2022-08-04T01:47:05;13.38;;;10.02;;
52650;SDS011;38537;47.226;39.702;2022-08-04T01:49:34;15.32;;;11.07;;
52650;SDS011;38537;47.226;39.702;2022-08-04T01:52:07;13.80;;;10.95;;
52650;SDS011;38537;47.226;39.702;2022-08-04T01:54:36;16.20;;;11.38;;
52650;SDS011;38537;47.226;39.702;2022-08-04T01:57:08;16.77;;;10.82;;
52650;SDS011;38537;47.226;39.702;2022-08-04T01:59:57;13.38;;;10.57;;
52650;SDS011;38537;47.226;39.702;2022-08-04T02:02:25;15.15;;;10.40;;
52650;SDS011;38537;47.226;39.702;2022-08-04T02:04:53;11.82;;;10.55;;
52650;SDS011;38537;47.226;39.702;2022-08-04T02:12:37;17.67;;;11.07;;
52650;SDS011;38537;47.226;39.702;2022-08-04T02:17:59;15.07;;;10.90;;
52650;SDS011;38537;47.226;39.702;2022-08-04T02:20:37;14.63;;;10.48;;
52650;SDS011;38537;47.226;39.702;2022-08-04T02:23:12;15.38;;;10.35;;
52650;SDS011;38537;47.226;39.702;2022-08-04T02:26:02;14.43;;;11.55;;
52650;SDS011;38537;47.226;39.702;2022-08-04T02:28:34;14.85;;;11.38;;
52650;SDS011;38537;47.226;39.702;2022-08-04T02:34:00;12.35;;;10.93;;
52650;SDS011;38537;47.226;39.702;2022-08-04T02:36:34;15.95;;;10.80;;
52650;SDS011;38537;47.226;39.702;2022-08-04T02:39:04;15.48;;;10.68;;
52650;SDS011;38537;47.226;39.702;2022-08-04T02:41:32;14.77;;;10.60;;
52650;SDS011;38537;47.226;39.702;2022-08-04T02:44:02;14.32;;;10.80;;
52650;SDS011;38537;47.226;39.702;2022-08-04T02:46:32;16.08;;;11.43;;
52650;SDS011;38537;47.226;39.702;2022-08-04T02:49:01;13.73;;;10.75;;
52650;SDS011;38537;47.226;39.702;2022-08-04T02:51:32;13.32;;;11.32;;
52650;SDS011;38537;47.226;39.702;2022-08-04T02:54:03;16.38;;;11.98;;
52650;SDS011;38537;47.226;39.702;2022-08-04T02:56:32;16.10;;;11.73;;
52650;SDS011;38537;47.226;39.702;2022-08-04T02:59:03;22.00;;;13.40;;
52650;SDS011;38537;47.226;39.702;2022-08-04T03:01:37;19.13;;;12.88;;
52650;SDS011;38537;47.226;39.702;2022-08-04T03:16:24;14.00;;;11.25;;
52650;SDS011;38537;47.226;39.702;2022-08-04T03:49:03;12.63;;;10.13;;
52650;SDS011;38537;47.226;39.702;2022-08-04T03:58:03;14.63;;;11.13;;
52650;SDS011;38537;47.226;39.702;2022-08-04T04:00:46;15.75;;;10.13;;
52650;SDS011;38537;47.226;39.702;2022-08-04T04:03:33;17.98;;;10.82;;
52650;SDS011;38537;47.226;39.702;2022-08-04T04:12:33;14.55;;;10.73;;
52650;SDS011;38537;47.226;39.702;2022-08-04T04:18:48;15.75;;;11.20;;
52650;SDS011;38537;47.226;39.702;2022-08-04T04:24:14;14.40;;;10.63;;
52650;SDS011;38537;47.226;39.702;2022-08-04T04:29:59;16.88;;;10.45;;
52650;SDS011;38537;47.226;39.702;2022-08-04T04:32:43;12.10;;;9.93;;
52650;SDS011;38537;47.226;39.702;2022-08-04T04:35:31;16.20;;;10.68;;
52650;SDS011;38537;47.226;39.702;2022-08-04T04:41:04;11.07;;;9.00;;
52650;SDS011;38537;47.226;39.702;2022-08-04T04:49:19;13.73;;;9.52;;
52650;SDS011;38537;47.226;39.702;2022-08-04T04:57:54;11.95;;;9.30;;
52650;SDS011;38537;47.226;39.702;2022-08-04T05:00:25;16.40;;;9.60;;
52650;SDS011;38537;47.226;39.702;2022-08-04T05:06:07;13.48;;;9.73;;
52650;SDS011;38537;47.226;39.702;2022-08-04T05:15:16;16.45;;;9.20;;
52650;SDS011;38537;47.226;39.702;2022-08-04T05:17:21;10.63;;;7.90;;
52650;SDS011;38537;47.226;39.702;2022-08-04T05:20:06;10.52;;;6.95;;
52650;SDS011;38537;47.226;39.702;2022-08-04T05:22:51;15.50;;;7.90;;
52650;SDS011;38537;47.226;39.702;2022-08-04T05:25:24;9.45;;;7.43;;
52650;SDS011;38537;47.226;39.702;2022-08-04T05:28:02;10.10;;;7.25;;
52650;SDS011;38537;47.226;39.702;2022-08-04T05:30:36;12.77;;;7.70;;
52650;SDS011;38537;47.226;39.702;2022-08-04T05:33:16;11.65;;;8.23;;
52650;SDS011;38537;47.226;39.702;2022-08-04T05:36:14;9.80;;;7.57;;
52650;SDS011;38537;47.226;39.702;2022-08-04T05:39:05;11.95;;;7.10;;
52650;SDS011;38537;47.226;39.702;2022-08-04T05:41:36;10.10;;;7.60;;
52650;SDS011;38537;47.226;39.702;2022-08-04T05:44:13;9.27;;;7.20;;
52650;SDS011;38537;47.226;39.702;2022-08-04T05:46:43;11.75;;;7.47;;
52650;SDS011;38537;47.226;39.702;2022-08-04T05:49:20;10.93;;;6.70;;
52650;SDS011;38537;47.226;39.702;2022-08-04T05:51:51;10.90;;;7.30;;
52650;SDS011;38537;47.226;39.702;2022-08-04T05:54:20;11.70;;;7.28;;
52650;SDS011;38537;47.226;39.702;2022-08-04T05:56:48;14.20;;;7.20;;
52650;SDS011;38537;47.226;39.702;2022-08-04T05:59:18;9.20;;;6.53;;
52650;SDS011;38537;47.226;39.702;2022-08-04T06:01:46;8.35;;;7.05;;
52650;SDS011;38537;47.226;39.702;2022-08-04T06:04:22;8.20;;;6.40;;
52650;SDS011;38537;47.226;39.702;2022-08-04T06:06:57;10.38;;;7.35;;
52650;SDS011;38537;47.226;39.702;2022-08-04T06:09:24;10.43;;;7.10;;
52650;SDS011;38537;47.226;39.702;2022-08-04T06:11:52;12.20;;;6.80;;
52650;SDS011;38537;47.226;39.702;2022-08-04T06:14:39;11.48;;;6.90;;
52650;SDS011;38537;47.226;39.702;2022-08-04T06:17:10;11.75;;;7.47;;
52650;SDS011;38537;47.226;39.702;2022-08-04T06:20:01;10.13;;;7.22;;
52650;SDS011;38537;47.226;39.702;2022-08-04T06:22:46;8.35;;;6.75;;
52650;SDS011;38537;47.226;39.702;2022-08-04T06:25:18;8.55;;;6.80;;
52650;SDS011;38537;47.226;39.702;2022-08-04T06:27:50;15.02;;;7.65;;
52650;SDS011;38537;47.226;39.702;2022-08-04T06:30:20;11.10;;;7.38;;
52650;SDS011;38537;47.226;39.702;2022-08-04T06:32:52;9.18;;;6.80;;
52650;SDS011;38537;47.226;39.702;2022-08-04T06:35:30;13.15;;;8.13;;
52650;SDS011;38537;47.226;39.702;2022-08-04T06:37:59;10.13;;;7.20;;
52650;SDS011;38537;47.226;39.702;2022-08-04T06:40:27;11.77;;;7.57;;
52650;SDS011;38537;47.226;39.702;2022-08-04T06:43:00;10.68;;;7.20;;
52650;SDS011;38537;47.226;39.702;2022-08-04T06:45:30;12.48;;;7.22;;
52650;SDS011;38537;47.226;39.702;2022-08-04T06:48:00;14.27;;;7.75;;
52650;SDS011;38537;47.226;39.702;2022-08-04T06:50:30;10.02;;;6.95;;
52650;SDS011;38537;47.226;39.702;2022-08-04T06:53:20;9.68;;;7.90;;
52650;SDS011;38537;47.226;39.702;2022-08-04T06:55:48;15.07;;;8.20;;
52650;SDS011;38537;47.226;39.702;2022-08-04T06:58:19;14.65;;;8.60;;
52650;SDS011;38537;47.226;39.702;2022-08-04T07:00:47;10.27;;;7.53;;
52650;SDS011;38537;47.226;39.702;2022-08-04T07:03:17;18.42;;;8.90;;
52650;SDS011;38537;47.226;39.702;2022-08-04T07:05:46;15.68;;;8.07;;
52650;SDS011;38537;47.226;39.702;2022-08-04T07:08:14;14.43;;;8.55;;
52650;SDS011;38537;47.226;39.702;2022-08-04T07:10:43;16.42;;;8.05;;
52650;SDS011;38537;47.226;39.702;2022-08-04T07:13:12;15.02;;;9.15;;
52650;SDS011;38537;47.226;39.702;2022-08-04T07:15:42;10.98;;;7.55;;
52650;SDS011;38537;47.226;39.702;2022-08-04T07:18:11;13.02;;;8.68;;
52650;SDS011;38537;47.226;39.702;2022-08-04T07:20:42;12.85;;;7.80;;
52650;SDS011;38537;47.226;39.702;2022-08-04T07:23:11;8.48;;;7.18;;
52650;SDS011;38537;47.226;39.702;2022-08-04T07:25:44;13.63;;;9.13;;
52650;SDS011;38537;47.226;39.702;2022-08-04T07:28:38;11.95;;;7.03;;
52650;SDS011;38537;47.226;39.702;2022-08-04T07:31:08;11.85;;;7.93;;
52650;SDS011;38537;47.226;39.702;2022-08-04T07:33:59;12.25;;;7.38;;
52650;SDS011;38537;47.226;39.702;2022-08-04T07:36:54;14.15;;;9.40;;
52650;SDS011;38537;47.226;39.702;2022-08-04T07:39:23;11.48;;;8.00;;
52650;SDS011;38537;47.226;39.702;2022-08-04T07:41:55;11.63;;;7.72;;
52650;SDS011;38537;47.226;39.702;2022-08-04T07:44:28;12.38;;;8.35;;
52650;SDS011;38537;47.226;39.702;2022-08-04T07:46:56;18.08;;;10.57;;
52650;SDS011;38537;47.226;39.702;2022-08-04T07:49:25;11.13;;;8.05;;
52650;SDS011;38537;47.226;39.702;2022-08-04T07:52:13;15.85;;;10.45;;
52650;SDS011;38537;47.226;39.702;2022-08-04T07:54:41;16.40;;;9.73;;
52650;SDS011;38537;47.226;39.702;2022-08-04T07:57:09;13.15;;;8.57;;
52650;SDS011;38537;47.226;39.702;2022-08-04T07:59:46;12.35;;;8.75;;
52650;SDS011;38537;47.226;39.702;2022-08-04T08:02:17;12.13;;;7.50;;
52650;SDS011;38537;47.226;39.702;2022-08-04T08:04:47;13.20;;;7.72;;
52650;SDS011;38537;47.226;39.702;2022-08-04T08:07:17;14.30;;;9.27;;
52650;SDS011;38537;47.226;39.702;2022-08-04T08:09:45;11.80;;;8.90;;
52650;SDS011;38537;47.226;39.702;2022-08-04T08:12:13;19.85;;;9.38;;
52650;SDS011;38537;47.226;39.702;2022-08-04T08:15:01;10.25;;;7.72;;
52650;SDS011;38537;47.226;39.702;2022-08-04T08:17:30;12.57;;;8.60;;
52650;SDS011;38537;47.226;39.702;2022-08-04T08:20:17;13.38;;;8.35;;
52650;SDS011;38537;47.226;39.702;2022-08-04T08:22:55;16.35;;;8.63;;
52650;SDS011;38537;47.226;39.702;2022-08-04T08:25:24;14.00;;;8.13;;
52650;SDS011;38537;47.226;39.702;2022-08-04T08:27:51;12.63;;;8.93;;
52650;SDS011;38537;47.226;39.702;2022-08-04T08:30:22;14.70;;;9.95;;
52650;SDS011;38537;47.226;39.702;2022-08-04T08:32:58;13.75;;;9.15;;
52650;SDS011;38537;47.226;39.702;2022-08-04T08:35:27;11.95;;;8.25;;
52650;SDS011;38537;47.226;39.702;2022-08-04T08:38:15;12.63;;;8.32;;
52650;SDS011;38537;47.226;39.702;2022-08-04T08:40:49;12.25;;;8.73;;
52650;SDS011;38537;47.226;39.702;2022-08-04T08:43:23;11.55;;;8.55;;
52650;SDS011;38537;47.226;39.702;2022-08-04T08:55:36;8.27;;;6.93;;
52650;SDS011;38537;47.226;39.702;2022-08-04T09:01:06;9.20;;;6.80;;
52650;SDS011;38537;47.226;39.702;2022-08-04T09:20:42;9.68;;;6.47;;
52650;SDS011;38537;47.226;39.702;2022-08-04T09:23:27;7.40;;;6.15;;
52650;SDS011;38537;47.226;39.702;2022-08-04T09:26:08;6.72;;;5.82;;
52650;SDS011;38537;47.226;39.702;2022-08-04T09:28:50;8.85;;;7.10;;
52650;SDS011;38537;47.226;39.702;2022-08-04T09:31:27;7.00;;;6.32;;
52650;SDS011;38537;47.226;39.702;2022-08-04T09:34:29;6.40;;;5.80;;
52650;SDS011;38537;47.226;39.702;2022-08-04T09:37:39;8.15;;;6.57;;
52650;SDS011;38537;47.226;39.702;2022-08-04T09:40:28;9.48;;;6.55;;
52650;SDS011;38537;47.226;39.702;2022-08-04T10:01:07;6.53;;;5.78;;
52650;SDS011;38537;47.226;39.702;2022-08-04T10:03:38;8.60;;;5.93;;
52650;SDS011;38537;47.226;39.702;2022-08-04T10:08:53;7.13;;;5.95;;
52650;SDS011;38537;47.226;39.702;2022-08-04T10:15:00;8.77;;;7.15;;
52650;SDS011;38537;47.226;39.702;2022-08-04T10:20:41;12.00;;;6.63;;
52650;SDS011;38537;47.226;39.702;2022-08-04T10:29:40;10.20;;;7.30;;
52650;SDS011;38537;47.226;39.702;2022-08-04T10:34:42;10.52;;;7.07;;
52650;SDS011;38537;47.226;39.702;2022-08-04T10:37:31;7.10;;;6.38;;
52650;SDS011;38537;47.226;39.702;2022-08-04T10:46:07;8.07;;;6.38;;
52650;SDS011;38537;47.226;39.702;2022-08-04T10:51:41;6.03;;;5.53;;
52650;SDS011;38537;47.226;39.702;2022-08-04T10:54:30;9.52;;;6.50;;
52650;SDS011;38537;47.226;39.702;2022-08-04T10:57:11;8.75;;;6.25;;
52650;SDS011;38537;47.226;39.702;2022-08-04T11:00:02;7.25;;;6.55;;
52650;SDS011;38537;47.226;39.702;2022-08-04T11:02:49;8.18;;;6.57;;
52650;SDS011;38537;47.226;39.702;2022-08-04T11:05:29;11.85;;;6.55;;
52650;SDS011;38537;47.226;39.702;2022-08-04T11:08:12;8.52;;;5.95;;
52650;SDS011;38537;47.226;39.702;2022-08-04T11:10:49;10.27;;;6.70;;
52650;SDS011;38537;47.226;39.702;2022-08-04T11:13:28;8.68;;;6.35;;
52650;SDS011;38537;47.226;39.702;2022-08-04T11:16:18;7.10;;;6.40;;
52650;SDS011;38537;47.226;39.702;2022-08-04T11:19:05;9.68;;;6.30;;
52650;SDS011;38537;47.226;39.702;2022-08-04T11:21:44;9.13;;;6.68;;
52650;SDS011;38537;47.226;39.702;2022-08-04T11:24:18;8.57;;;7.05;;
52650;SDS011;38537;47.226;39.702;2022-08-04T11:26:59;8.00;;;6.85;;
52650;SDS011;38537;47.226;39.702;2022-08-04T11:32:14;9.40;;;7.00;;
52650;SDS011;38537;47.226;39.702;2022-08-04T11:34:47;8.18;;;6.93;;
52650;SDS011;38537;47.226;39.702;2022-08-04T11:37:24;11.75;;;7.43;;
52650;SDS011;38537;47.226;39.702;2022-08-04T11:40:06;8.02;;;7.22;;
52650;SDS011;38537;47.226;39.702;2022-08-04T11:42:42;8.45;;;7.25;;
52650;SDS011;38537;47.226;39.702;2022-08-04T11:45:31;9.40;;;7.25;;
52650;SDS011;38537;47.226;39.702;2022-08-04T11:48:04;10.30;;;7.00;;
52650;SDS011;38537;47.226;39.702;2022-08-04T11:50:43;7.20;;;6.50;;
52650;SDS011;38537;47.226;39.702;2022-08-04T11:53:23;6.68;;;6.07;;
52650;SDS011;38537;47.226;39.702;2022-08-04T11:56:04;8.15;;;6.45;;
52650;SDS011;38537;47.226;39.702;2022-08-04T11:58:38;10.60;;;6.65;;
52650;SDS011;38537;47.226;39.702;2022-08-04T12:03:59;7.82;;;6.60;;
52650;SDS011;38537;47.226;39.702;2022-08-04T12:06:41;7.45;;;6.07;;
52650;SDS011;38537;47.226;39.702;2022-08-04T12:17:55;7.97;;;5.88;;
52650;SDS011;38537;47.226;39.702;2022-08-04T12:20:35;7.13;;;6.45;;
52650;SDS011;38537;47.226;39.702;2022-08-04T12:23:14;8.60;;;6.35;;
52650;SDS011;38537;47.226;39.702;2022-08-04T12:25:49;7.35;;;6.20;;
52650;SDS011;38537;47.226;39.702;2022-08-04T12:28:27;7.95;;;6.13;;
52650;SDS011;38537;47.226;39.702;2022-08-04T12:31:19;7.28;;;6.05;;
52650;SDS011;38537;47.226;39.702;2022-08-04T12:33:54;6.60;;;6.00;;
52650;SDS011;38537;47.226;39.702;2022-08-04T12:39:24;6.72;;;5.90;;
52650;SDS011;38537;47.226;39.702;2022-08-04T12:44:35;5.75;;;5.20;;
52650;SDS011;38537;47.226;39.702;2022-08-04T12:47:06;6.80;;;6.05;;
52650;SDS011;38537;47.226;39.702;2022-08-04T12:49:58;7.10;;;6.28;;
52650;SDS011;38537;47.226;39.702;2022-08-04T12:52:32;6.75;;;5.93;;
52650;SDS011;38537;47.226;39.702;2022-08-04T12:55:28;7.38;;;5.97;;
52650;SDS011;38537;47.226;39.702;2022-08-04T12:57:57;6.75;;;5.70;;
52650;SDS011;38537;47.226;39.702;2022-08-04T13:00:32;9.20;;;6.43;;
52650;SDS011;38537;47.226;39.702;2022-08-04T13:03:08;6.68;;;5.80;;
52650;SDS011;38537;47.226;39.702;2022-08-04T13:05:38;6.78;;;6.07;;
52650;SDS011;38537;47.226;39.702;2022-08-04T13:08:07;6.68;;;6.05;;
52650;SDS011;38537;47.226;39.702;2022-08-04T13:10:40;7.28;;;6.53;;
52650;SDS011;38537;47.226;39.702;2022-08-04T13:13:13;10.20;;;7.20;;
52650;SDS011;38537;47.226;39.702;2022-08-04T13:15:43;9.93;;;7.93;;
52650;SDS011;38537;47.226;39.702;2022-08-04T13:18:50;13.85;;;7.90;;
52650;SDS011;38537;47.226;39.702;2022-08-04T13:21:18;8.70;;;7.80;;
52650;SDS011;38537;47.226;39.702;2022-08-04T13:23:52;9.38;;;7.32;;
52650;SDS011;38537;47.226;39.702;2022-08-04T13:26:48;8.18;;;7.35;;
52650;SDS011;38537;47.226;39.702;2022-08-04T13:29:30;7.75;;;6.90;;
52650;SDS011;38537;47.226;39.702;2022-08-04T13:32:30;7.35;;;6.65;;
52650;SDS011;38537;47.226;39.702;2022-08-04T13:34:59;9.25;;;6.80;;
52650;SDS011;38537;47.226;39.702;2022-08-04T13:37:33;7.82;;;6.57;;
52650;SDS011;38537;47.226;39.702;2022-08-04T13:40:05;8.15;;;6.57;;
52650;SDS011;38537;47.226;39.702;2022-08-04T13:42:37;7.40;;;6.57;;
52650;SDS011;38537;47.226;39.702;2022-08-04T13:45:06;8.30;;;6.53;;
52650;SDS011;38537;47.226;39.702;2022-08-04T13:47:35;9.45;;;6.80;;
52650;SDS011;38537;47.226;39.702;2022-08-04T13:52:38;7.90;;;7.10;;
52650;SDS011;38537;47.226;39.702;2022-08-04T13:55:19;8.25;;;6.90;;
52650;SDS011;38537;47.226;39.702;2022-08-04T13:58:01;8.75;;;7.85;;
52650;SDS011;38537;47.226;39.702;2022-08-04T14:00:53;7.80;;;7.00;;
52650;SDS011;38537;47.226;39.702;2022-08-04T14:03:30;9.18;;;7.00;;
52650;SDS011;38537;47.226;39.702;2022-08-04T14:06:22;7.88;;;6.43;;
52650;SDS011;38537;47.226;39.702;2022-08-04T14:11:32;8.88;;;7.10;;
52650;SDS011;38537;47.226;39.702;2022-08-04T14:14:26;10.45;;;7.50;;
52650;SDS011;38537;47.226;39.702;2022-08-04T14:17:03;10.70;;;7.65;;
52650;SDS011;38537;47.226;39.702;2022-08-04T14:19:56;9.95;;;7.60;;
52650;SDS011;38537;47.226;39.702;2022-08-04T14:25:00;13.60;;;7.32;;
52650;SDS011;38537;47.226;39.702;2022-08-04T14:27:47;14.95;;;7.20;;
52650;SDS011;38537;47.226;39.702;2022-08-04T14:33:04;13.20;;;6.75;;
52650;SDS011;38537;47.226;39.702;2022-08-04T14:35:56;9.77;;;6.63;;
52650;SDS011;38537;47.226;39.702;2022-08-04T14:38:47;11.20;;;6.72;;
52650;SDS011;38537;47.226;39.702;2022-08-04T14:41:27;9.20;;;6.57;;
52650;SDS011;38537;47.226;39.702;2022-08-04T14:43:59;9.00;;;6.38;;
52650;SDS011;38537;47.226;39.702;2022-08-04T14:46:29;8.80;;;6.60;;
52650;SDS011;38537;47.226;39.702;2022-08-04T14:49:09;11.35;;;7.05;;
52650;SDS011;38537;47.226;39.702;2022-08-04T14:51:43;7.60;;;6.47;;
52650;SDS011;38537;47.226;39.702;2022-08-04T14:54:13;9.98;;;6.78;;
52650;SDS011;38537;47.226;39.702;2022-08-04T14:56:50;9.32;;;6.82;;
52650;SDS011;38537;47.226;39.702;2022-08-04T14:59:20;9.55;;;7.10;;
52650;SDS011;38537;47.226;39.702;2022-08-04T15:01:48;8.77;;;6.90;;
52650;SDS011;38537;47.226;39.702;2022-08-04T15:04:28;8.07;;;7.05;;
52650;SDS011;38537;47.226;39.702;2022-08-04T15:06:57;10.60;;;7.20;;
52650;SDS011;38537;47.226;39.702;2022-08-04T15:09:30;11.07;;;6.73;;
52650;SDS011;38537;47.226;39.702;2022-08-04T15:11:58;9.10;;;7.22;;
52650;SDS011;38537;47.226;39.702;2022-08-04T15:14:26;7.82;;;6.78;;
52650;SDS011;38537;47.226;39.702;2022-08-04T15:17:04;8.63;;;6.70;;
52650;SDS011;38537;47.226;39.702;2022-08-04T15:19:38;10.38;;;7.18;;
52650;SDS011;38537;47.226;39.702;2022-08-04T15:22:21;8.55;;;7.10;;
52650;SDS011;38537;47.226;39.702;2022-08-04T15:24:50;10.98;;;7.80;;
52650;SDS011;38537;47.226;39.702;2022-08-04T15:27:25;8.35;;;7.13;;
52650;SDS011;38537;47.226;39.702;2022-08-04T15:29:55;12.13;;;8.13;;
52650;SDS011;38537;47.226;39.702;2022-08-04T15:32:34;11.57;;;8.40;;
52650;SDS011;38537;47.226;39.702;2022-08-04T15:35:08;8.73;;;7.82;;
52650;SDS011;38537;47.226;39.702;2022-08-04T15:46:26;10.52;;;7.28;;
52650;SDS011;38537;47.226;39.702;2022-08-04T15:49:20;9.02;;;7.15;;
52650;SDS011;38537;47.226;39.702;2022-08-04T15:52:01;8.50;;;7.15;;
52650;SDS011;38537;47.226;39.702;2022-08-04T15:54:38;7.72;;;6.72;;
52650;SDS011;38537;47.226;39.702;2022-08-04T15:57:17;9.90;;;7.80;;
52650;SDS011;38537;47.226;39.702;2022-08-04T16:00:24;7.13;;;6.45;;
52650;SDS011;38537;47.226;39.702;2022-08-04T16:02:52;8.35;;;7.32;;
52650;SDS011;38537;47.226;39.702;2022-08-04T16:10:39;11.18;;;7.63;;
52650;SDS011;38537;47.226;39.702;2022-08-04T16:13:09;11.93;;;8.15;;
52650;SDS011;38537;47.226;39.702;2022-08-04T16:20:57;15.18;;;9.07;;
52650;SDS011;38537;47.226;39.702;2022-08-04T16:23:46;12.38;;;8.57;;
52650;SDS011;38537;47.226;39.702;2022-08-04T16:29:25;12.57;;;8.32;;
52650;SDS011;38537;47.226;39.702;2022-08-04T16:34:33;12.30;;;8.48;;
52650;SDS011;38537;47.226;39.702;2022-08-04T16:37:20;12.23;;;8.50;;
52650;SDS011;38537;47.226;39.702;2022-08-04T16:43:15;11.88;;;8.75;;
52650;SDS011;38537;47.226;39.702;2022-08-04T16:45:45;13.93;;;8.85;;
52650;SDS011;38537;47.226;39.702;2022-08-04T16:48:19;12.95;;;9.10;;
52650;SDS011;38537;47.226;39.702;2022-08-04T16:51:00;12.20;;;9.05;;
52650;SDS011;38537;47.226;39.702;2022-08-04T16:53:36;16.05;;;8.95;;
52650;SDS011;38537;47.226;39.702;2022-08-04T16:56:30;12.88;;;9.15;;
52650;SDS011;38537;47.226;39.702;2022-08-04T16:59:07;11.63;;;8.88;;
52650;SDS011;38537;47.226;39.702;2022-08-04T17:01:43;12.15;;;9.40;;
52650;SDS011;38537;47.226;39.702;2022-08-04T17:04:14;12.98;;;9.15;;
52650;SDS011;38537;47.226;39.702;2022-08-04T17:06:42;16.25;;;10.77;;
52650;SDS011;38537;47.226;39.702;2022-08-04T17:09:13;13.15;;;10.25;;
52650;SDS011;38537;47.226;39.702;2022-08-04T17:11:43;13.35;;;10.02;;
52650;SDS011;38537;47.226;39.702;2022-08-04T17:14:12;14.98;;;9.90;;
52650;SDS011;38537;47.226;39.702;2022-08-04T17:16:40;13.18;;;9.82;;
52650;SDS011;38537;47.226;39.702;2022-08-04T17:19:09;12.30;;;8.93;;
52650;SDS011;38537;47.226;39.702;2022-08-04T17:22:02;15.60;;;9.50;;
52650;SDS011;38537;47.226;39.702;2022-08-04T17:24:36;15.93;;;9.27;;
52650;SDS011;38537;47.226;39.702;2022-08-04T17:27:06;13.68;;;8.98;;
52650;SDS011;38537;47.226;39.702;2022-08-04T17:29:54;15.88;;;9.73;;
52650;SDS011;38537;47.226;39.702;2022-08-04T17:32:22;16.17;;;10.30;;
52650;SDS011;38537;47.226;39.702;2022-08-04T17:34:51;13.60;;;9.82;;
52650;SDS011;38537;47.226;39.702;2022-08-04T17:37:21;13.15;;;9.55;;
52650;SDS011;38537;47.226;39.702;2022-08-04T17:40:08;13.93;;;8.38;;
52650;SDS011;38537;47.226;39.702;2022-08-04T17:42:39;11.83;;;8.87;;
52650;SDS011;38537;47.226;39.702;2022-08-04T17:45:11;12.13;;;8.43;;
52650;SDS011;38537;47.226;39.702;2022-08-04T17:48:05;12.73;;;8.43;;
52650;SDS011;38537;47.226;39.702;2022-08-04T17:50:34;16.58;;;9.23;;
52650;SDS011;38537;47.226;39.702;2022-08-04T17:53:09;9.90;;;8.80;;
52650;SDS011;38537;47.226;39.702;2022-08-04T17:55:45;13.52;;;8.30;;
52650;SDS011;38537;47.226;39.702;2022-08-04T17:58:19;11.82;;;8.40;;
52650;SDS011;38537;47.226;39.702;2022-08-04T18:00:59;11.10;;;8.73;;
52650;SDS011;38537;47.226;39.702;2022-08-04T18:03:48;11.88;;;8.93;;
52650;SDS011;38537;47.226;39.702;2022-08-04T18:06:17;12.25;;;8.85;;
52650;SDS011;38537;47.226;39.702;2022-08-04T18:08:50;11.80;;;8.32;;
52650;SDS011;38537;47.226;39.702;2022-08-04T18:11:22;12.13;;;8.18;;
52650;SDS011;38537;47.226;39.702;2022-08-04T18:13:55;9.93;;;8.00;;
52650;SDS011;38537;47.226;39.702;2022-08-04T18:16:23;9.48;;;7.68;;
52650;SDS011;38537;47.226;39.702;2022-08-04T18:21:40;10.93;;;8.40;;
52650;SDS011;38537;47.226;39.702;2022-08-04T18:24:26;11.57;;;7.93;;
52650;SDS011;38537;47.226;39.702;2022-08-04T18:27:15;9.75;;;7.65;;
52650;SDS011;38537;47.226;39.702;2022-08-04T18:29:45;12.25;;;8.05;;
52650;SDS011;38537;47.226;39.702;2022-08-04T18:32:33;10.05;;;8.20;;
52650;SDS011;38537;47.226;39.702;2022-08-04T18:35:01;10.10;;;7.88;;
52650;SDS011;38537;47.226;39.702;2022-08-04T18:37:49;10.13;;;7.65;;
52650;SDS011;38537;47.226;39.702;2022-08-04T18:40:37;9.82;;;7.95;;
52650;SDS011;38537;47.226;39.702;2022-08-04T18:43:20;12.35;;;7.95;;
52650;SDS011;38537;47.226;39.702;2022-08-04T18:46:07;9.30;;;7.85;;
52650;SDS011;38537;47.226;39.702;2022-08-04T18:48:40;11.13;;;7.90;;
52650;SDS011;38537;47.226;39.702;2022-08-04T18:51:17;8.50;;;7.53;;
52650;SDS011;38537;47.226;39.702;2022-08-04T18:53:51;9.88;;;7.45;;
52650;SDS011;38537;47.226;39.702;2022-08-04T18:56:25;9.07;;;7.63;;
52650;SDS011;38537;47.226;39.702;2022-08-04T18:58:58;9.55;;;7.63;;
52650;SDS011;38537;47.226;39.702;2022-08-04T19:01:30;8.27;;;7.10;;
52650;SDS011;38537;47.226;39.702;2022-08-04T19:04:18;10.15;;;7.20;;
52650;SDS011;38537;47.226;39.702;2022-08-04T19:07:05;9.48;;;7.38;;
52650;SDS011;38537;47.226;39.702;2022-08-04T19:09:53;7.65;;;6.75;;
52650;SDS011;38537;47.226;39.702;2022-08-04T19:12:25;9.85;;;6.80;;
52650;SDS011;38537;47.226;39.702;2022-08-04T19:14:57;7.97;;;6.75;;
52650;SDS011;38537;47.226;39.702;2022-08-04T19:17:37;10.52;;;6.85;;
52650;SDS011;38537;47.226;39.702;2022-08-04T19:20:23;11.00;;;7.30;;
52650;SDS011;38537;47.226;39.702;2022-08-04T19:22:52;7.30;;;6.47;;
52650;SDS011;38537;47.226;39.702;2022-08-04T19:25:41;8.13;;;6.38;;
52650;SDS011;38537;47.226;39.702;2022-08-04T19:28:30;7.60;;;5.60;;
52650;SDS011;38537;47.226;39.702;2022-08-04T19:31:02;8.57;;;6.28;;
52650;SDS011;38537;47.226;39.702;2022-08-04T19:33:59;6.40;;;5.80;;
52650;SDS011;38537;47.226;39.702;2022-08-04T19:36:30;6.82;;;6.03;;
52650;SDS011;38537;47.226;39.702;2022-08-04T19:39:00;7.70;;;6.90;;
52650;SDS011;38537;47.226;39.702;2022-08-04T19:41:37;7.38;;;6.38;;
52650;SDS011;38537;47.226;39.702;2022-08-04T19:44:24;8.15;;;6.57;;
52650;SDS011;38537;47.226;39.702;2022-08-04T19:46:56;7.85;;;5.90;;